Wetterdaten: Juni 2009
Datum Temp Feuchte Luftdruck Regen Wind Richtung Sonnenschein UV Solar Windben
01.06.2009 18,6 C 63 % 1019,6 hPa 0,2 l/m 9,5 km/h N-NO 11,67 h 3,3 UV-I 457 W/m 18,1 km/h
02.06.2009 15,8 C 62 % 1017,2 hPa 0,0 l/m 10,2 km/h N-NW 11,42 h 3,5 UV-I 459 W/m 18,1 km/h
03.06.2009 9,9 C 68 % 1015,0 hPa 0,0 l/m 11,8 km/h N-NW 0,83 h 1,5 UV-I 160 W/m 22,9 km/h
04.06.2009 9,3 C 69 % 1012,5 hPa 0,0 l/m 8,7 km/h NW 1,42 h 1,8 UV-I 196 W/m 19,3 km/h
05.06.2009 9,0 C 78 % 1009,9 hPa 0,0 l/m 3,2 km/h W-NW 2,25 h 1,6 UV-I 202 W/m 7,7 km/h
06.06.2009 8,2 C 88 % 1001,3 hPa 9,0 l/m 6,2 km/h NO 1,17 h 1,2 UV-I 132 W/m 13,3 km/h
07.06.2009 11,1 C 88 % 1003,1 hPa 1,8 l/m 6,6 km/h N 1,17 h 1,7 UV-I 153 W/m 12,1 km/h
08.06.2009 13,4 C 72 % 1008,5 hPa 0,2 l/m 5,2 km/h S 5,83 h 2,5 UV-I 327 W/m 10,9 km/h
09.06.2009 14,9 C 81 % 1008,0 hPa 6,0 l/m 10,7 km/h S 4,33 h 2,3 UV-I 247 W/m 19,3 km/h
10.06.2009 14,0 C 85 % 1012,3 hPa 1,2 l/m 3,9 km/h S 2,50 h 2,4 UV-I 240 W/m 7,3 km/h
11.06.2009 10,5 C 94 % 1011,4 hPa 7,4 l/m 6,8 km/h NW 0,50 h 1,0 UV-I 91 W/m 18,1 km/h
12.06.2009 11,4 C 74 % 1018,7 hPa 1,6 l/m 8,9 km/h NW 4,33 h 2,4 UV-I 293 W/m 20,5 km/h
13.06.2009 12,8 C 69 % 1021,1 hPa 0,0 l/m 3,0 km/h NW 12,58 h 3,9 UV-I 494 W/m 6,8 km/h
14.06.2009 14,9 C 87 % 1017,6 hPa 0,6 l/m 1,6 km/h S 4,00 h 2,1 UV-I 228 W/m 3,6 km/h
15.06.2009 13,9 C 93 % 1015,2 hPa 5,4 l/m 1,8 km/h NW 1,00 h 1,4 UV-I 132 W/m 4,8 km/h
16.06.2009 12,6 C 93 % 1021,6 hPa 8,8 l/m 2,4 km/h NW 3,50 h 1,9 UV-I 222 W/m 7,3 km/h
17.06.2009 15,0 C 82 % 1021,0 hPa 0,2 l/m 4,0 km/h S-SO 9,33 h 3,3 UV-I 426 W/m 8,0 km/h
18.06.2009 16,9 C 76 % 1015,7 hPa 1,2 l/m 4,9 km/h S 4,58 h 2,9 UV-I 266 W/m 10,0 km/h
19.06.2009 14,1 C 71 % 1016,8 hPa 0,8 l/m 4,7 km/h NW 4,33 h 2,5 UV-I 276 W/m 10,4 km/h
20.06.2009 12,0 C 80 % 1019,6 hPa 0,4 l/m 4,1 km/h S 4,17 h 2,5 UV-I 295 W/m 9,2 km/h
21.06.2009 10,7 C 90 % 1020,3 hPa 6,8 l/m 0,8 km/h NW 2,00 h 2,3 UV-I 221 W/m 2,8 km/h
22.06.2009 14,0 C 74 % 1025,2 hPa 0,0 l/m 7,3 km/h N-NW 3,75 h 2,4 UV-I 286 W/m 11,7 km/h
23.06.2009 16,9 C 65 % 1024,2 hPa 0,0 l/m 9,7 km/h N-NO 10,08 h 3,1 UV-I 405 W/m 19,3 km/h
24.06.2009 18,8 C 62 % 1018,6 hPa 0,0 l/m 4,6 km/h N-NO 13,00 h 3,9 UV-I 485 W/m 12,0 km/h
25.06.2009 16,8 C 82 % 1012,8 hPa 0,0 l/m 7,0 km/h NO 6,67 h 3,1 UV-I 345 W/m 16,1 km/h
26.06.2009 18,5 C 87 % 1012,1 hPa 6,8 l/m 6,4 km/h O-SO 5,25 h 2,6 UV-I 301 W/m 16,1 km/h
27.06.2009 18,0 C 87 % 1014,6 hPa 0,0 l/m 4,2 km/h NO 2,75 h 1,8 UV-I 211 W/m 10,5 km/h
28.06.2009 19,0 C 84 % 1015,4 hPa 0,0 l/m 1,5 km/h O-NO 4,08 h 2,1 UV-I 255 W/m 4,8 km/h
29.06.2009 21,5 C 78 % 1017,3 hPa 0,0 l/m 1,4 km/h N-NO 5,50 h 2,8 UV-I 324 W/m 3,2 km/h
30.06.2009 21,8 C 72 % 1019,1 hPa 0,0 l/m 3,7 km/h N-NO 6,92 h 2,7 UV-I 326 W/m 6,4 km/h
Min-Datum 06.06.09 01.06.09 06.06.09 17 Tage 01.06.09 - - - - 01.06.09
Min-Zeit 01:30 15:50 23:45 - 01:25 - - - - 01:25
Minimum 2,8 C 38 % 999,1 hPa - 0,0 km/h - - - - 0,0 km/h
Max-Datum 30.06.09 22.06.09 23.06.09 06.06.09 11.06.09 - 24.06.09 18.06.09 21.06.09 11.06.09
Max-Zeit 15:40 02:45 02:35 14:05 14:00 - 20:10 12:50 13:20 14:00
Maximum 27,9 C 100 % 1026,8 hPa 9,0 l/m 26,8 km/h
NW
- 12,92 h 8,0 UV-I 1209 W/m 49,9 km/h
W
Durchschnitt 14,5 C 78 % 1015,5 hPa #58,4 l/m 5,5 km/h N-NO #150:55 h 2,4 UV-I 282 W/m 11,7 km/h

Durchschnitt Minimum Temp.9,5 C
Durchschnitt Maximum Temp.19,3 C